Time;durP1;ratioP1;P1;durP2;ratioP2;P2;SDS_P1;SDS_P2;PMS_P1;PMS_P2;Temp;Humidity;BMP_temperature;BMP_pressure;BME280_temperature;BME280_humidity;BME280_pressure;Samples;Min_cycle;Max_cycle;Signal;HPM_P1;HPM_P2
2023/05/04 00:00:42;;;;;;;0.00;0.00;;;8.40;99.90;;;;;;5026986;28;20552;-62
2023/05/04 00:03:07;;;;;;;0.20;0.20;;;8.40;99.90;;;;;;5021661;28;20060;-62
2023/05/04 00:05:33;;;;;;;0.30;0.30;;;8.50;99.90;;;;;;5009033;28;20041;-62
2023/05/04 00:07:59;;;;;;;0.17;0.17;;;8.50;99.90;;;;;;5014843;28;20045;-62
2023/05/04 00:10:26;;;;;;;0.10;0.10;;;8.40;99.90;;;;;;5009890;28;20034;-62
2023/05/04 00:12:52;;;;;;;0.10;0.10;;;8.30;99.90;;;;;;5019213;28;20701;-62
2023/05/04 00:15:18;;;;;;;0.10;0.10;;;8.40;99.90;;;;;;5022912;28;20132;-62
2023/05/04 00:17:44;;;;;;;0.20;0.20;;;8.50;99.90;;;;;;5011780;28;20079;-62
2023/05/04 00:20:12;;;;;;;0.00;0.00;;;8.50;99.90;;;;;;5022664;28;20118;-62
2023/05/04 00:22:37;;;;;;;0.03;0.03;;;8.50;99.90;;;;;;5022753;28;20041;-62
2023/05/04 00:25:04;;;;;;;0.68;0.68;;;8.40;99.90;;;;;;5013493;28;20490;-62
2023/05/04 00:27:30;;;;;;;0.10;0.10;;;8.40;99.90;;;;;;5013792;28;20481;-61
2023/05/04 00:29:55;;;;;;;0.10;0.10;;;8.30;99.90;;;;;;5024405;28;20058;-62
2023/05/04 00:32:21;;;;;;;0.10;0.10;;;8.30;99.90;;;;;;5018013;28;20436;-61
2023/05/04 00:34:47;;;;;;;0.10;0.10;;;8.40;99.90;;;;;;5015036;28;20049;-61
2023/05/04 00:37:13;;;;;;;0.10;0.10;;;8.40;99.90;;;;;;5019713;28;20045;-62
2023/05/04 00:39:39;;;;;;;0.10;0.10;;;8.40;99.90;;;;;;5017227;28;20425;-62
2023/05/04 00:42:05;;;;;;;0.13;0.13;;;8.30;99.90;;;;;;5012374;28;20041;-62
2023/05/04 00:44:30;;;;;;;0.00;0.00;;;8.30;99.90;;;;;;5009059;28;20095;-62
2023/05/04 00:46:56;;;;;;;0.47;0.40;;;8.20;99.90;;;;;;5020226;28;20525;-62
2023/05/04 00:49:23;;;;;;;0.40;0.40;;;8.30;99.90;;;;;;5014636;28;20413;-63
2023/05/04 00:51:50;;;;;;;0.10;0.10;;;8.30;99.90;;;;;;5016142;28;20045;-63
2023/05/04 00:54:19;;;;;;;0.77;0.30;;;8.30;99.90;;;;;;5018453;28;20081;-63
2023/05/04 00:56:45;;;;;;;0.10;0.10;;;8.30;99.90;;;;;;5040325;28;20042;-60
2023/05/04 00:59:12;;;;;;;0.10;0.10;;;8.20;99.90;;;;;;5015855;28;20045;-63
2023/05/04 01:01:38;;;;;;;0.52;0.40;;;8.20;99.90;;;;;;5008607;28;20042;-63
2023/05/04 01:04:04;;;;;;;0.43;0.43;;;8.20;99.90;;;;;;5015441;28;20064;-63
2023/05/04 01:06:42;;;;;;;0.10;0.10;;;8.20;99.90;;;;;;5008052;28;20042;-63
2023/05/04 01:09:33;;;;;;;0.10;0.10;;;8.10;99.90;;;;;;5019791;28;20037;-63
2023/05/04 01:12:06;;;;;;;0.05;0.05;;;8.20;99.90;;;;;;5010799;28;20054;-63
2023/05/04 01:14:36;;;;;;;0.10;0.10;;;8.10;99.90;;;;;;5007825;28;20658;-63
2023/05/04 01:17:06;;;;;;;0.00;0.00;;;8.20;99.90;;;;;;5019805;28;20481;-63
2023/05/04 01:19:32;;;;;;;0.10;0.10;;;8.10;99.90;;;;;;5017132;28;20055;-63
2023/05/04 01:21:57;;;;;;;0.00;0.00;;;8.10;99.90;;;;;;5015781;28;20409;-63
2023/05/04 01:24:25;;;;;;;0.35;0.35;;;8.10;99.90;;;;;;5012446;28;20038;-63
2023/05/04 01:27:01;;;;;;;0.32;0.32;;;8.10;99.90;;;;;;5018296;28;20045;-63
2023/05/04 01:29:40;;;;;;;0.10;0.10;;;8.10;99.90;;;;;;5014533;28;20124;-63
2023/05/04 01:32:07;;;;;;;0.10;0.10;;;8.10;99.90;;;;;;5015689;28;20049;-62
2023/05/04 01:34:34;;;;;;;0.10;0.10;;;8.10;99.90;;;;;;5017587;28;20100;-63
2023/05/04 01:37:00;;;;;;;0.22;0.22;;;8.00;99.90;;;;;;5009493;28;20520;-63
2023/05/04 01:39:25;;;;;;;0.10;0.10;;;8.10;99.90;;;;;;5017676;28;20038;-63
2023/05/04 01:41:51;;;;;;;0.10;0.10;;;8.00;99.90;;;;;;5020003;28;20041;-63
2023/05/04 01:44:16;;;;;;;0.10;0.10;;;7.90;99.90;;;;;;5013424;28;20442;-63
2023/05/04 01:46:42;;;;;;;0.10;0.10;;;8.10;99.90;;;;;;5013886;28;20071;-63
2023/05/04 01:49:08;;;;;;;0.35;0.35;;;8.10;99.90;;;;;;5013078;28;20033;-63
2023/05/04 01:51:33;;;;;;;0.10;0.10;;;8.10;99.90;;;;;;5015563;28;20080;-63
2023/05/04 01:53:59;;;;;;;0.00;0.00;;;8.00;99.90;;;;;;5018848;28;20061;-63
2023/05/04 01:56:24;;;;;;;0.03;0.03;;;8.00;99.90;;;;;;5008842;28;20482;-62
2023/05/04 01:58:50;;;;;;;0.00;0.00;;;8.10;99.90;;;;;;5024182;28;20045;-63
2023/05/04 02:01:15;;;;;;;0.10;0.10;;;8.10;99.90;;;;;;5025221;28;20480;-63
2023/05/04 02:03:41;;;;;;;0.10;0.10;;;8.00;99.90;;;;;;5022073;28;20071;-63
2023/05/04 02:06:07;;;;;;;0.10;0.10;;;8.10;99.90;;;;;;5020618;28;20042;-63
2023/05/04 02:08:33;;;;;;;0.10;0.10;;;8.10;99.90;;;;;;5023059;28;20446;-62
2023/05/04 02:10:58;;;;;;;0.30;0.30;;;8.00;99.90;;;;;;5021109;28;20085;-63
2023/05/04 02:13:24;;;;;;;0.70;0.70;;;8.00;99.90;;;;;;5013201;28;20049;-63
2023/05/04 02:15:49;;;;;;;0.00;0.00;;;8.00;99.90;;;;;;5025738;28;20041;-62
2023/05/04 02:18:15;;;;;;;0.00;0.00;;;7.90;99.90;;;;;;5025970;28;20052;-63
2023/05/04 02:20:40;;;;;;;0.90;0.90;;;8.00;99.90;;;;;;5016080;28;20045;-63
2023/05/04 02:23:06;;;;;;;0.00;0.00;;;7.90;99.90;;;;;;5026041;28;20041;-63
2023/05/04 02:25:31;;;;;;;0.57;0.20;;;7.90;99.90;;;;;;5019087;28;20046;-63
2023/05/04 02:27:57;;;;;;;0.10;0.10;;;8.00;99.90;;;;;;5018124;28;20484;-63
2023/05/04 02:30:23;;;;;;;1.45;0.73;;;7.90;99.90;;;;;;5017188;28;20045;-63
2023/05/04 02:32:48;;;;;;;0.10;0.10;;;7.90;99.90;;;;;;5024750;28;20095;-63
2023/05/04 02:35:14;;;;;;;0.30;0.30;;;7.90;99.90;;;;;;5026590;28;20080;-63
2023/05/04 02:37:39;;;;;;;0.20;0.20;;;8.00;99.90;;;;;;5030035;28;20159;-63
2023/05/04 02:40:06;;;;;;;0.30;0.30;;;8.00;99.90;;;;;;5014084;28;20073;-63
2023/05/04 02:42:31;;;;;;;0.32;0.32;;;8.00;99.90;;;;;;5030867;28;20041;-63
2023/05/04 02:44:57;;;;;;;0.25;0.25;;;7.90;99.90;;;;;;5024983;28;20693;-63
2023/05/04 02:47:22;;;;;;;0.13;0.13;;;7.90;99.90;;;;;;5028279;28;20048;-63
2023/05/04 02:49:48;;;;;;;0.20;0.20;;;8.00;99.90;;;;;;5019034;28;20576;-63
2023/05/04 02:52:14;;;;;;;0.05;0.05;;;7.90;99.90;;;;;;5014503;28;20062;-63
2023/05/04 02:54:39;;;;;;;0.20;0.20;;;7.90;99.90;;;;;;5013856;28;20057;-63
2023/05/04 02:57:05;;;;;;;0.10;0.10;;;7.90;99.90;;;;;;5012119;28;20048;-63
2023/05/04 02:59:31;;;;;;;0.28;0.28;;;7.90;99.90;;;;;;5011085;28;20041;-63
2023/05/04 03:01:57;;;;;;;0.10;0.10;;;7.90;99.90;;;;;;5017576;28;20042;-63
2023/05/04 03:04:22;;;;;;;1.35;1.25;;;7.90;99.90;;;;;;5011262;28;20513;-63
2023/05/04 03:06:48;;;;;;;0.10;0.10;;;8.00;99.90;;;;;;5019727;28;20061;-63
2023/05/04 03:09:13;;;;;;;0.00;0.00;;;7.90;99.90;;;;;;5018055;28;20060;-63
2023/05/04 03:11:39;;;;;;;0.20;0.20;;;7.90;99.90;;;;;;5022449;28;20047;-63
2023/05/04 03:14:05;;;;;;;0.15;0.15;;;7.90;99.90;;;;;;5013046;28;20128;-63
2023/05/04 03:16:31;;;;;;;0.00;0.00;;;8.00;99.90;;;;;;5017634;28;20045;-63
2023/05/04 03:18:57;;;;;;;0.10;0.10;;;8.00;99.90;;;;;;5015842;28;20053;-63
2023/05/04 03:21:22;;;;;;;0.20;0.20;;;8.10;99.90;;;;;;5015518;28;20049;-63
2023/05/04 03:23:48;;;;;;;0.10;0.10;;;8.00;99.90;;;;;;5010582;28;20052;-63
2023/05/04 03:26:13;;;;;;;2.28;0.50;;;8.00;99.90;;;;;;5015880;28;20104;-63
2023/05/04 03:28:39;;;;;;;0.10;0.10;;;8.00;99.90;;;;;;5011128;28;20038;-63
2023/05/04 03:31:05;;;;;;;0.10;0.10;;;8.00;99.90;;;;;;5026326;28;20045;-63
2023/05/04 03:33:30;;;;;;;0.13;0.13;;;7.90;99.90;;;;;;5018090;28;20044;-63
2023/05/04 03:35:56;;;;;;;0.43;0.43;;;7.90;99.90;;;;;;5015198;28;20056;-63
2023/05/04 03:38:21;;;;;;;0.10;0.10;;;7.90;99.90;;;;;;5011893;28;20046;-63
2023/05/04 03:40:47;;;;;;;1.85;1.30;;;7.90;99.90;;;;;;5015881;28;20721;-63
2023/05/04 03:43:12;;;;;;;0.10;0.10;;;8.00;99.90;;;;;;5018385;28;20069;-63
2023/05/04 03:45:38;;;;;;;0.10;0.10;;;7.90;99.90;;;;;;5011446;28;20092;-63
2023/05/04 03:48:04;;;;;;;0.08;0.08;;;7.90;99.90;;;;;;5013459;28;20040;-63
2023/05/04 03:50:30;;;;;;;0.40;0.40;;;7.80;99.90;;;;;;5024631;28;20158;-63
2023/05/04 03:52:56;;;;;;;0.20;0.20;;;7.80;99.90;;;;;;5018662;28;20060;-63
2023/05/04 03:55:22;;;;;;;0.10;0.10;;;7.90;99.90;;;;;;5016246;28;20058;-63
2023/05/04 03:57:47;;;;;;;0.40;0.40;;;7.80;99.90;;;;;;5016003;28;20458;-62
2023/05/04 04:00:14;;;;;;;0.00;0.00;;;7.80;99.90;;;;;;5023348;28;20099;-63
2023/05/04 04:02:39;;;;;;;1.27;0.95;;;7.80;99.90;;;;;;5012226;28;20099;-63
2023/05/04 04:05:05;;;;;;;0.80;0.47;;;7.70;99.90;;;;;;5015667;28;20073;-63
2023/05/04 04:07:32;;;;;;;0.10;0.10;;;7.80;99.90;;;;;;5014900;28;20061;-63
2023/05/04 04:09:57;;;;;;;0.10;0.10;;;7.80;99.90;;;;;;5018361;28;20111;-63
2023/05/04 04:12:23;;;;;;;0.20;0.20;;;7.70;99.90;;;;;;5023834;28;20038;-63
2023/05/04 04:14:50;;;;;;;0.10;0.10;;;7.80;99.90;;;;;;5015300;28;20461;-63
2023/05/04 04:17:16;;;;;;;2.65;2.45;;;7.70;99.90;;;;;;5014902;28;20096;-63
2023/05/04 04:19:41;;;;;;;0.10;0.10;;;7.80;99.90;;;;;;5018926;28;20355;-63
2023/05/04 04:22:07;;;;;;;0.13;0.13;;;7.90;99.90;;;;;;5015582;28;20042;-63
2023/05/04 04:24:33;;;;;;;0.80;0.32;;;7.90;99.90;;;;;;5019589;28;20595;-63
2023/05/04 04:26:58;;;;;;;0.08;0.08;;;7.90;99.90;;;;;;5018923;28;20070;-63
2023/05/04 04:29:24;;;;;;;3.40;1.55;;;8.00;99.90;;;;;;5021756;28;20036;-63
2023/05/04 04:31:50;;;;;;;0.22;0.22;;;7.90;99.90;;;;;;5019209;28;20103;-63
2023/05/04 04:34:16;;;;;;;0.00;0.00;;;7.90;99.90;;;;;;5022791;28;20505;-63
2023/05/04 04:36:42;;;;;;;0.00;0.00;;;7.90;99.90;;;;;;5013902;28;20056;-63
2023/05/04 04:39:08;;;;;;;0.10;0.10;;;8.00;99.90;;;;;;5027227;28;20430;-63
2023/05/04 04:41:33;;;;;;;0.10;0.10;;;8.00;99.90;;;;;;5015044;28;20049;-63
2023/05/04 04:43:59;;;;;;;0.10;0.10;;;8.00;99.90;;;;;;5024727;28;20049;-63
2023/05/04 04:46:25;;;;;;;0.22;0.22;;;8.00;99.90;;;;;;5018490;28;20038;-63
2023/05/04 04:48:52;;;;;;;0.93;0.93;;;8.00;99.90;;;;;;5024052;28;20052;-63
2023/05/04 04:51:18;;;;;;;0.10;0.10;;;8.00;99.90;;;;;;5012608;28;20046;-63
2023/05/04 04:53:43;;;;;;;0.20;0.20;;;8.00;99.90;;;;;;5026237;28;20049;-63
2023/05/04 04:56:09;;;;;;;0.10;0.10;;;8.10;99.90;;;;;;5025737;28;20041;-63
2023/05/04 04:58:35;;;;;;;0.10;0.10;;;8.10;99.90;;;;;;5009701;28;20038;-63
2023/05/04 05:01:03;;;;;;;0.20;0.20;;;8.10;99.90;;;;;;5015264;28;20099;-63
2023/05/04 05:03:29;;;;;;;0.10;0.10;;;8.10;99.90;;;;;;5016720;28;20080;-63
2023/05/04 05:05:54;;;;;;;9.02;1.20;;;8.10;99.90;;;;;;5015392;28;20080;-63
2023/05/04 05:08:20;;;;;;;0.30;0.30;;;8.20;99.90;;;;;;5011385;28;20057;-63
2023/05/04 05:10:46;;;;;;;0.30;0.30;;;8.10;99.90;;;;;;5018057;28;20041;-63
2023/05/04 05:13:11;;;;;;;0.32;0.25;;;8.20;99.90;;;;;;5016030;28;20458;-63
2023/05/04 05:15:37;;;;;;;0.20;0.20;;;8.30;99.90;;;;;;5007945;28;20030;-63
2023/05/04 05:18:02;;;;;;;0.10;0.10;;;8.30;99.90;;;;;;5023190;28;20049;-63
2023/05/04 05:20:28;;;;;;;0.32;0.32;;;8.30;99.90;;;;;;5013709;28;20037;-63
2023/05/04 05:22:54;;;;;;;1.45;0.75;;;8.30;99.90;;;;;;5014847;28;20042;-63
2023/05/04 05:25:20;;;;;;;0.00;0.00;;;8.30;99.90;;;;;;5016868;28;20038;-63
2023/05/04 05:27:46;;;;;;;0.47;0.47;;;8.30;99.90;;;;;;5025813;28;20046;-63
2023/05/04 05:30:12;;;;;;;0.15;0.15;;;8.50;99.90;;;;;;5022342;28;20038;-63
2023/05/04 05:32:38;;;;;;;0.00;0.00;;;8.40;99.90;;;;;;5021277;28;20041;-63
2023/05/04 05:35:04;;;;;;;0.10;0.10;;;8.50;99.90;;;;;;5015823;28;20045;-63
2023/05/04 05:37:31;;;;;;;0.08;0.08;;;8.60;99.90;;;;;;5020502;28;20442;-63
2023/05/04 05:39:56;;;;;;;0.10;0.10;;;8.60;99.90;;;;;;5010891;28;20736;-63
2023/05/04 05:42:22;;;;;;;0.10;0.10;;;8.60;99.90;;;;;;5014465;28;20050;-63
2023/05/04 05:44:47;;;;;;;0.47;0.47;;;8.70;99.90;;;;;;5012351;28;20041;-63
2023/05/04 05:47:13;;;;;;;0.00;0.00;;;8.70;99.90;;;;;;5011261;28;20057;-63
2023/05/04 05:49:40;;;;;;;0.30;0.30;;;8.80;99.90;;;;;;5017285;28;20056;-63
2023/05/04 05:52:06;;;;;;;0.10;0.10;;;8.70;99.90;;;;;;5017777;28;20046;-63
2023/05/04 05:54:33;;;;;;;0.15;0.15;;;8.80;99.90;;;;;;5011184;28;20058;-63
2023/05/04 05:56:58;;;;;;;0.10;0.10;;;8.90;99.90;;;;;;5012689;28;20046;-63
2023/05/04 05:59:24;;;;;;;0.10;0.10;;;8.90;99.90;;;;;;5009373;28;20045;-63
2023/05/04 06:01:50;;;;;;;0.00;0.00;;;9.00;99.90;;;;;;5015859;28;20603;-64
2023/05/04 06:04:15;;;;;;;0.28;0.28;;;8.90;99.90;;;;;;5012979;28;20141;-63
2023/05/04 06:06:41;;;;;;;0.50;0.50;;;9.00;99.90;;;;;;5012087;28;20396;-63
2023/05/04 06:09:06;;;;;;;0.57;0.57;;;9.00;99.90;;;;;;5017513;28;20053;-63
2023/05/04 06:11:32;;;;;;;0.20;0.20;;;9.00;99.90;;;;;;5016583;28;20613;-63
2023/05/04 06:13:58;;;;;;;0.40;0.40;;;9.10;99.90;;;;;;5011471;28;20045;-63
2023/05/04 06:16:23;;;;;;;0.45;0.45;;;9.20;99.90;;;;;;5019820;28;20143;-63
2023/05/04 06:18:49;;;;;;;0.20;0.20;;;9.20;99.90;;;;;;5021303;28;20045;-63
2023/05/04 06:21:14;;;;;;;0.63;0.50;;;9.20;99.90;;;;;;5013192;28;20042;-64
2023/05/04 06:23:40;;;;;;;0.10;0.10;;;9.40;99.90;;;;;;5009998;28;20077;-64
2023/05/04 06:26:06;;;;;;;0.10;0.10;;;9.40;99.90;;;;;;5017424;28;20062;-63
2023/05/04 06:28:33;;;;;;;0.15;0.15;;;9.40;99.90;;;;;;5021663;28;20053;-63
2023/05/04 06:30:59;;;;;;;0.30;0.30;;;9.50;99.90;;;;;;5008791;28;20437;-63
2023/05/04 06:33:24;;;;;;;0.20;0.20;;;9.60;99.90;;;;;;5011152;28;20041;-63
2023/05/04 06:35:51;;;;;;;3.10;1.38;;;9.70;99.90;;;;;;5015517;28;20511;-63
2023/05/04 06:38:17;;;;;;;0.10;0.10;;;9.70;99.90;;;;;;5017985;28;20091;-63
2023/05/04 06:40:42;;;;;;;0.10;0.10;;;9.70;99.90;;;;;;5007581;28;20152;-63
2023/05/04 06:43:08;;;;;;;0.10;0.10;;;9.80;99.90;;;;;;5013147;28;20056;-63
2023/05/04 06:45:34;;;;;;;1.05;0.95;;;9.80;99.90;;;;;;5026885;28;20267;-63
2023/05/04 06:48:01;;;;;;;1.25;0.73;;;9.80;99.90;;;;;;5029657;28;20730;-63
2023/05/04 06:50:27;;;;;;;0.25;0.25;;;9.80;99.90;;;;;;5018445;28;20281;-63
2023/05/04 06:53:13;;;;;;;0.00;0.00;;;9.90;99.90;;;;;;5011638;28;20469;-63
2023/05/04 06:55:38;;;;;;;0.05;0.05;;;10.00;99.90;;;;;;5011859;28;20103;-63
2023/05/04 06:58:04;;;;;;;0.10;0.10;;;10.10;99.90;;;;;;5012647;28;20049;-63
2023/05/04 07:00:30;;;;;;;0.00;0.00;;;10.10;99.90;;;;;;5011362;28;20041;-64
2023/05/04 07:02:56;;;;;;;0.00;0.00;;;10.10;99.90;;;;;;5014761;28;20133;-64
2023/05/04 07:05:22;;;;;;;0.10;0.10;;;10.10;99.90;;;;;;5018789;28;20121;-64
2023/05/04 07:07:48;;;;;;;0.10;0.10;;;10.20;99.90;;;;;;5014495;28;20033;-63
2023/05/04 07:10:14;;;;;;;0.00;0.00;;;10.20;99.90;;;;;;5012390;28;20068;-63
2023/05/04 07:12:41;;;;;;;2.47;1.10;;;10.30;99.90;;;;;;5014659;28;20037;-63
2023/05/04 07:15:08;;;;;;;0.10;0.10;;;10.40;99.90;;;;;;5013394;28;20116;-64
2023/05/04 07:17:35;;;;;;;0.10;0.10;;;10.40;99.90;;;;;;5014222;28;20085;-63
2023/05/04 07:20:04;;;;;;;0.00;0.00;;;10.50;99.90;;;;;;5020740;28;20046;-63
2023/05/04 07:22:31;;;;;;;4.85;0.90;;;10.50;99.90;;;;;;5014117;28;20030;-64
2023/05/04 07:24:57;;;;;;;1.00;0.57;;;10.60;99.90;;;;;;5018055;28;20571;-63
2023/05/04 07:27:23;;;;;;;0.10;0.10;;;10.70;99.90;;;;;;5012159;28;20439;-63
2023/05/04 07:29:49;;;;;;;0.63;0.63;;;10.70;99.90;;;;;;5019096;28;20053;-64
2023/05/04 07:32:15;;;;;;;0.10;0.10;;;10.70;99.90;;;;;;5011654;28;20037;-63
2023/05/04 07:34:42;;;;;;;0.10;0.10;;;10.80;99.90;;;;;;5014651;28;20042;-64
2023/05/04 07:37:08;;;;;;;0.00;0.00;;;11.00;99.90;;;;;;5018702;28;20046;-64
2023/05/04 07:39:37;;;;;;;0.25;0.25;;;11.00;99.90;;;;;;5016901;28;20049;-64
2023/05/04 07:42:04;;;;;;;0.30;0.30;;;11.10;99.90;;;;;;5013494;28;20057;-64
2023/05/04 07:44:30;;;;;;;0.10;0.10;;;11.10;99.90;;;;;;5013780;28;20052;-63
2023/05/04 07:46:57;;;;;;;0.88;0.88;;;11.10;99.90;;;;;;5016469;28;20838;-63
2023/05/04 07:49:23;;;;;;;0.03;0.03;;;11.30;99.90;;;;;;5013255;28;20408;-63
2023/05/04 07:51:49;;;;;;;0.08;0.08;;;11.40;99.90;;;;;;5025414;28;20045;-63
2023/05/04 07:54:15;;;;;;;0.45;0.45;;;11.50;99.90;;;;;;5018925;28;20401;-63
2023/05/04 07:56:41;;;;;;;3.20;0.63;;;11.50;99.90;;;;;;5014466;28;20049;-63
2023/05/04 07:59:06;;;;;;;0.40;0.40;;;11.70;99.90;;;;;;5022205;28;20460;-63
2023/05/04 08:01:32;;;;;;;0.22;0.22;;;11.80;99.90;;;;;;5014605;28;20049;-62
2023/05/04 08:03:57;;;;;;;0.63;0.63;;;11.80;99.90;;;;;;5016420;28;20042;-63
2023/05/04 08:06:23;;;;;;;0.52;0.52;;;11.90;99.90;;;;;;5022365;28;20033;-63
2023/05/04 08:08:48;;;;;;;0.32;0.32;;;11.90;99.90;;;;;;5027141;28;20049;-63
2023/05/04 08:11:15;;;;;;;0.00;0.00;;;12.00;99.90;;;;;;5011862;28;20807;-63
2023/05/04 08:13:40;;;;;;;0.10;0.10;;;12.10;99.90;;;;;;5017470;28;20045;-63
2023/05/04 08:16:09;;;;;;;0.68;0.68;;;12.20;99.90;;;;;;5022416;28;20630;-63
2023/05/04 08:18:35;;;;;;;0.10;0.10;;;12.20;99.90;;;;;;5015873;28;20064;-63
2023/05/04 08:21:01;;;;;;;0.80;0.80;;;12.40;99.90;;;;;;5014551;28;20053;-63
2023/05/04 08:23:27;;;;;;;0.55;0.55;;;12.40;99.90;;;;;;5016977;28;20716;-63
2023/05/04 08:25:53;;;;;;;0.28;0.28;;;12.50;99.90;;;;;;5020002;28;20084;-63
2023/05/04 08:28:18;;;;;;;0.10;0.10;;;12.50;99.90;;;;;;5025847;28;20404;-63
2023/05/04 08:30:44;;;;;;;0.20;0.20;;;12.60;99.90;;;;;;5021090;28;20048;-63
2023/05/04 08:33:09;;;;;;;0.35;0.35;;;12.60;99.90;;;;;;5011171;28;20121;-63
2023/05/04 08:35:36;;;;;;;0.10;0.10;;;12.60;99.90;;;;;;5028227;28;20037;-63
2023/05/04 08:38:02;;;;;;;0.15;0.15;;;12.70;99.90;;;;;;5013076;28;20115;-63
2023/05/04 08:40:28;;;;;;;2.65;1.48;;;12.70;99.90;;;;;;5015461;28;20116;-63
2023/05/04 08:42:54;;;;;;;0.77;0.47;;;12.80;99.90;;;;;;5029090;28;20613;-63
2023/05/04 08:45:20;;;;;;;0.95;0.95;;;12.80;99.90;;;;;;5019913;28;20045;-63
2023/05/04 08:47:46;;;;;;;1.60;0.90;;;12.80;99.90;;;;;;5013637;28;20038;-63
2023/05/04 08:50:12;;;;;;;7.13;1.13;;;13.00;99.90;;;;;;5014474;28;20048;-63
2023/05/04 08:52:46;;;;;;;0.32;0.32;;;13.30;99.90;;;;;;5016318;28;20088;-64
2023/05/04 08:55:12;;;;;;;0.10;0.10;;;13.70;99.90;;;;;;5016251;28;20053;-64
2023/05/04 08:57:41;;;;;;;0.17;0.17;;;14.40;99.90;;;;;;5021193;28;20128;-64
2023/05/04 09:00:14;;;;;;;1.55;1.10;;;14.80;99.90;;;;;;5006505;28;20041;-64
2023/05/04 09:02:40;;;;;;;0.00;0.00;;;15.30;99.90;;;;;;5010484;28;20498;-64
2023/05/04 09:05:06;;;;;;;0.60;0.60;;;15.70;99.90;;;;;;5016469;28;20053;-64
2023/05/04 09:07:32;;;;;;;0.00;0.00;;;16.00;99.90;;;;;;5014319;28;20038;-64
2023/05/04 09:09:58;;;;;;;4.38;0.65;;;16.20;99.90;;;;;;5017571;28;20049;-64
2023/05/04 09:12:25;;;;;;;0.10;0.10;;;16.20;99.90;;;;;;5012919;28;20038;-64
2023/05/04 09:14:51;;;;;;;0.30;0.30;;;16.60;99.90;;;;;;5008563;28;20053;-64
2023/05/04 09:17:28;;;;;;;0.00;0.00;;;16.70;99.90;;;;;;5021784;28;20140;-64
2023/05/04 09:20:03;;;;;;;0.60;0.60;;;16.80;99.90;;;;;;5008223;28;20046;-64
2023/05/04 09:22:29;;;;;;;0.00;0.00;;;16.80;99.90;;;;;;5007129;28;20498;-64
2023/05/04 09:25:09;;;;;;;0.00;0.00;;;16.90;99.90;;;;;;5019522;28;20056;-64
2023/05/04 09:27:35;;;;;;;0.00;0.00;;;16.90;99.90;;;;;;5008057;28;20042;-64
2023/05/04 09:30:01;;;;;;;0.30;0.30;;;17.10;99.90;;;;;;5009923;28;20715;-64
2023/05/04 09:32:27;;;;;;;0.10;0.10;;;17.00;99.90;;;;;;5013498;28;20046;-64
2023/05/04 09:34:53;;;;;;;0.98;0.43;;;16.90;99.90;;;;;;5006489;28;20521;-65
2023/05/04 09:37:20;;;;;;;0.03;0.03;;;16.80;99.90;;;;;;5007965;28;20034;-64
2023/05/04 09:39:57;;;;;;;0.10;0.10;;;16.90;99.90;;;;;;5017164;28;20081;-64
2023/05/04 09:42:24;;;;;;;0.47;0.47;;;17.00;99.90;;;;;;5017135;28;20115;-64
2023/05/04 09:45:10;;;;;;;0.00;0.00;;;17.00;99.90;;;;;;5013198;28;20038;-64
2023/05/04 09:47:39;;;;;;;0.13;0.13;;;16.80;99.90;;;;;;5012074;28;20089;-64
2023/05/04 09:50:22;;;;;;;0.00;0.00;;;16.90;99.90;;;;;;5008793;28;20054;-64
2023/05/04 09:52:49;;;;;;;0.00;0.00;;;17.10;99.90;;;;;;5019705;28;20044;-64
2023/05/04 09:55:16;;;;;;;0.10;0.10;;;17.10;99.90;;;;;;5014262;28;20049;-64
2023/05/04 09:57:44;;;;;;;0.03;0.03;;;17.20;99.90;;;;;;5018743;28;20528;-65
2023/05/04 10:00:17;;;;;;;1.65;1.02;;;17.10;99.90;;;;;;5018605;28;20041;-64
2023/05/04 10:02:44;;;;;;;0.03;0.03;;;17.50;99.90;;;;;;5012852;28;20038;-64
2023/05/04 10:05:14;;;;;;;0.10;0.10;;;17.90;99.90;;;;;;5021711;28;20393;-64
2023/05/04 10:07:42;;;;;;;0.52;0.52;;;17.80;99.90;;;;;;5022196;28;20042;-65
2023/05/04 10:10:10;;;;;;;1.33;0.52;;;17.60;99.90;;;;;;5009622;28;20045;-65
2023/05/04 10:12:36;;;;;;;0.00;0.00;;;17.80;99.90;;;;;;5013377;28;20042;-65
2023/05/04 10:15:08;;;;;;;0.00;0.00;;;17.80;99.90;;;;;;5008993;28;20087;-65
2023/05/04 10:18:01;;;;;;;0.00;0.00;;;17.80;99.90;;;;;;5009742;28;20046;-65
2023/05/04 10:20:47;;;;;;;22.33;1.00;;;17.90;99.90;;;;;;5012055;28;20087;-65
2023/05/04 10:23:28;;;;;;;0.10;0.10;;;18.20;99.90;;;;;;5019280;28;20049;-65
2023/05/04 10:26:16;;;;;;;0.77;0.77;;;18.30;99.90;;;;;;5011897;28;20053;-65
2023/05/04 10:28:56;;;;;;;0.47;0.47;;;18.50;99.90;;;;;;5014820;28;20096;-65
2023/05/04 10:31:22;;;;;;;0.00;0.00;;;18.60;99.90;;;;;;5011990;28;20058;-65
2023/05/04 10:33:47;;;;;;;0.00;0.00;;;18.80;99.90;;;;;;5013727;28;20040;-65
2023/05/04 10:36:13;;;;;;;0.00;0.00;;;18.80;99.90;;;;;;5012879;28;20049;-65
2023/05/04 10:38:40;;;;;;;0.10;0.10;;;18.80;99.90;;;;;;5018917;28;20377;-65
2023/05/04 10:41:16;;;;;;;1.35;0.63;;;18.80;99.90;;;;;;5013508;28;20460;-65
2023/05/04 10:43:42;;;;;;;0.30;0.30;;;18.70;99.90;;;;;;5011715;28;20378;-65
2023/05/04 10:46:21;;;;;;;0.20;0.20;;;18.70;99.90;;;;;;5010707;28;20521;-65
2023/05/04 10:48:47;;;;;;;0.20;0.20;;;18.60;99.90;;;;;;5014047;28;20133;-65
2023/05/04 10:51:21;;;;;;;1.08;0.40;;;18.80;99.90;;;;;;5026816;28;20088;-65
2023/05/04 10:53:47;;;;;;;4.28;1.67;;;18.80;99.90;;;;;;5010924;28;20054;-65
2023/05/04 10:56:21;;;;;;;0.00;0.00;;;18.80;99.90;;;;;;5015151;28;20049;-65
2023/05/04 10:58:47;;;;;;;0.10;0.10;;;19.00;99.90;;;;;;5019961;28;20048;-65
2023/05/04 11:01:12;;;;;;;0.00;0.00;;;18.90;99.90;;;;;;5017896;28;20064;-65
2023/05/04 11:03:41;;;;;;;0.20;0.20;;;19.10;99.90;;;;;;5019416;28;20050;-65
2023/05/04 11:06:18;;;;;;;0.28;0.28;;;19.20;99.50;;;;;;5011382;28;20041;-65
2023/05/04 11:08:50;;;;;;;0.00;0.00;;;19.30;99.90;;;;;;5015130;28;20092;-65
2023/05/04 11:11:16;;;;;;;0.00;0.00;;;19.50;99.90;;;;;;5011489;28;20037;-65
2023/05/04 11:13:45;;;;;;;0.10;0.10;;;19.90;99.90;;;;;;5010284;28;20430;-65
2023/05/04 11:16:11;;;;;;;0.10;0.10;;;20.00;99.30;;;;;;5009843;28;20072;-65
2023/05/04 11:18:37;;;;;;;0.00;0.00;;;20.00;98.30;;;;;;5010277;28;20049;-65
2023/05/04 11:21:03;;;;;;;0.00;0.00;;;19.70;97.80;;;;;;5016750;28;20119;-65
2023/05/04 11:23:29;;;;;;;0.08;0.08;;;20.00;98.40;;;;;;5022187;28;20134;-65
2023/05/04 11:25:55;;;;;;;0.25;0.25;;;20.20;99.00;;;;;;5023801;28;20073;-65
2023/05/04 11:28:35;;;;;;;0.20;0.20;;;20.20;98.10;;;;;;5053581;28;20045;-66
2023/05/04 11:31:14;;;;;;;2.10;0.30;;;20.00;97.30;;;;;;5018648;28;20038;-65
2023/05/04 11:33:53;;;;;;;0.38;0.38;;;20.20;99.10;;;;;;5014298;28;20037;-65
2023/05/04 11:36:20;;;;;;;0.00;0.00;;;20.20;98.80;;;;;;5010586;28;20052;-65
2023/05/04 11:38:46;;;;;;;0.00;0.00;;;20.10;97.90;;;;;;5014264;28;20077;-65
2023/05/04 11:41:12;;;;;;;0.32;0.32;;;20.40;98.30;;;;;;5009403;28;20085;-65
2023/05/04 11:43:39;;;;;;;0.00;0.00;;;20.30;97.40;;;;;;5017427;28;20041;-65
2023/05/04 11:46:06;;;;;;;0.00;0.00;;;20.60;97.80;;;;;;5015688;28;20056;-65
2023/05/04 11:48:33;;;;;;;0.00;0.00;;;20.70;97.00;;;;;;5017300;28;20050;-65
2023/05/04 11:50:59;;;;;;;0.00;0.00;;;20.70;97.00;;;;;;5010865;28;20564;-65
2023/05/04 11:53:25;;;;;;;0.15;0.15;;;20.60;97.20;;;;;;5009668;28;20201;-65
2023/05/04 11:55:53;;;;;;;0.20;0.20;;;20.70;96.50;;;;;;5009140;28;20072;-65
2023/05/04 11:58:24;;;;;;;0.30;0.30;;;20.80;97.30;;;;;;5009635;28;20191;-65
2023/05/04 12:00:54;;;;;;;0.00;0.00;;;21.00;97.10;;;;;;5021512;28;20034;-65
2023/05/04 12:03:40;;;;;;;0.17;0.17;;;21.00;96.70;;;;;;5025913;28;20056;-65
2023/05/04 12:06:06;;;;;;;0.03;0.03;;;20.80;96.10;;;;;;5041621;28;20108;-66
2023/05/04 12:08:40;;;;;;;0.10;0.10;;;21.40;96.60;;;;;;5008935;28;20050;-65
2023/05/04 12:11:24;;;;;;;4.55;2.40;;;21.40;96.60;;;;;;5005672;28;20077;-66
2023/05/04 12:14:02;;;;;;;0.50;0.47;;;21.80;95.70;;;;;;5019317;28;20092;-65
2023/05/04 12:16:27;;;;;;;11.48;0.43;;;21.50;95.80;;;;;;5013752;28;20053;-66
2023/05/04 12:19:09;;;;;;;2.10;0.73;;;21.70;95.20;;;;;;5019000;28;20064;-65
2023/05/04 12:21:35;;;;;;;0.47;0.40;;;21.70;96.40;;;;;;5016882;28;20076;-65
2023/05/04 12:24:02;;;;;;;0.00;0.00;;;22.00;96.00;;;;;;5009585;28;20042;-65
2023/05/04 12:26:28;;;;;;;0.00;0.00;;;22.00;95.10;;;;;;5018320;28;20058;-65
2023/05/04 12:28:55;;;;;;;0.20;0.20;;;22.40;96.30;;;;;;5007990;28;20038;-65
2023/05/04 12:31:21;;;;;;;0.15;0.15;;;22.10;95.00;;;;;;5016261;28;20565;-65
2023/05/04 12:33:48;;;;;;;0.75;0.65;;;21.80;95.80;;;;;;5015455;28;20049;-66
2023/05/04 12:36:14;;;;;;;0.17;0.17;;;22.10;95.30;;;;;;5018432;28;20045;-66
2023/05/04 12:38:40;;;;;;;0.00;0.00;;;22.00;95.30;;;;;;5015592;28;20044;-65
2023/05/04 12:41:09;;;;;;;0.00;0.00;;;22.40;96.00;;;;;;5019200;28;20034;-65
2023/05/04 12:43:35;;;;;;;0.35;0.35;;;22.30;95.50;;;;;;5021265;28;20048;-65
2023/05/04 12:46:01;;;;;;;0.00;0.00;;;22.30;95.50;;;;;;5021072;28;20050;-66
2023/05/04 12:48:28;;;;;;;0.28;0.28;;;22.30;94.60;;;;;;5010675;28;20046;-65
2023/05/04 12:50:54;;;;;;;12.68;2.55;;;22.80;95.30;;;;;;5011360;28;20164;-66
2023/05/04 12:53:23;;;;;;;2.33;0.40;;;22.70;94.10;;;;;;5018655;28;20119;-65